Sciota, PA (18354)

4:44 AM EDT on August 24, 2016 (GMT -0400)
Cherry Valley | | Change Station

Elev 700 ft 40.94 °N, 75.26 °W | Updated 35 seconds ago

Clear
Clear
51.1 °F
Feels Like 51.1 °F
N
0.0
Wind Variable Wind from WNW
Gusts 0.0 mph

Today
High -- | Low -- °F
--% Chance of Precip.
Yesterday
High -- | Low -- °F
Precip. -- in
Pressure 30.30 in
Visibility 10.0 miles
Clouds Clear
Dew Point 47 °F
Humidity 86%
Rainfall 0.00 in
Snow Depth Not available.
6:20 AM 7:45 PM
Waning Gibbous, 59% visible
METAR KMPO 240753Z AUTO 32003KT 10SM CLR 11/11 A3032 RMK AO2 SLP261 T01110106 $
Pressure 30.30 in
Visibility 10.0 miles
Clouds Clear
Dew Point 47 °F
Humidity 86%
Rainfall 0.00 in
Snow Depth Not available.
6:20 AM 7:45 PM
Waning Gibbous, 59% visible
METAR KMPO 240753Z AUTO 32003KT 10SM CLR 11/11 A3032 RMK AO2 SLP261 T01110106 $

10-Day Weather Forecast

Almanac

Astronomy

Aug. 24, 2016 Rise Set
Actual Time
Civil Twilight
Nautical Twilight
Astronomical Twilight
Moon
Length of Visible Light
Length of Day
Tomorrow will be .
, % of the Moon is Illuminated

Today's Extremes

State Highs State Lows

Community

WunderPhotos

Upload Photos

1,934,560 photos uploaded!

WunderBlog® & News

Nearby

Air Quality

  Air Quality AQ Index Pollutant
Not available.

Snow Depth

Station Depth Elevation

Earthquake Activity

City Distance Mag. Time & Date
Minimum magnitude displayed is 2.5.

Coastal Water Temperatures

Place Temperature

Stations

Nearby Weather Stations

Station Location Temp. Windchill Dew Point Humidity Wind Precip. Elev Updated Type
                   

Watches & Warnings

There are currently no watches in effect.